sensor_id;sensor_type;location;lat;lon;timestamp;temperature;humidity
37356;DHT22;48747;50.250;18.848;2022-07-06T00:01:07;17.30;99.90
37356;DHT22;48747;50.250;18.848;2022-07-06T00:03:21;17.30;99.90
37356;DHT22;48747;50.250;18.848;2022-07-06T00:05:26;17.30;99.90
37356;DHT22;48747;50.250;18.848;2022-07-06T00:07:33;17.30;99.90
37356;DHT22;48747;50.250;18.848;2022-07-06T00:09:40;17.20;99.90
37356;DHT22;48747;50.250;18.848;2022-07-06T00:11:47;17.20;99.90
37356;DHT22;48747;50.250;18.848;2022-07-06T00:13:52;17.30;99.90
37356;DHT22;48747;50.250;18.848;2022-07-06T00:16:04;17.30;99.90
37356;DHT22;48747;50.250;18.848;2022-07-06T00:18:07;17.20;99.90
37356;DHT22;48747;50.250;18.848;2022-07-06T00:20:15;17.20;99.90
37356;DHT22;48747;50.250;18.848;2022-07-06T00:22:17;17.20;99.90
37356;DHT22;48747;50.250;18.848;2022-07-06T00:26:38;17.20;99.90
37356;DHT22;48747;50.250;18.848;2022-07-06T00:28:42;17.20;99.90
37356;DHT22;48747;50.250;18.848;2022-07-06T00:30:46;17.20;99.90
37356;DHT22;48747;50.250;18.848;2022-07-06T00:37:09;17.10;99.90
37356;DHT22;48747;50.250;18.848;2022-07-06T00:39:11;17.00;99.90
37356;DHT22;48747;50.250;18.848;2022-07-06T00:41:25;17.00;99.90
37356;DHT22;48747;50.250;18.848;2022-07-06T00:43:34;17.10;99.90
37356;DHT22;48747;50.250;18.848;2022-07-06T00:45:30;17.00;99.90
37356;DHT22;48747;50.250;18.848;2022-07-06T00:47:37;17.00;99.90
37356;DHT22;48747;50.250;18.848;2022-07-06T00:49:42;17.00;99.90
37356;DHT22;48747;50.250;18.848;2022-07-06T00:52:07;17.00;99.90
37356;DHT22;48747;50.250;18.848;2022-07-06T00:54:15;17.00;99.90
37356;DHT22;48747;50.250;18.848;2022-07-06T00:56:23;16.90;99.90
37356;DHT22;48747;50.250;18.848;2022-07-06T00:58:26;16.90;99.90
37356;DHT22;48747;50.250;18.848;2022-07-06T01:02:46;16.90;99.90
37356;DHT22;48747;50.250;18.848;2022-07-06T01:04:52;16.80;99.90
37356;DHT22;48747;50.250;18.848;2022-07-06T01:07:03;16.80;99.90
37356;DHT22;48747;50.250;18.848;2022-07-06T01:09:06;16.80;99.90
37356;DHT22;48747;50.250;18.848;2022-07-06T01:11:11;16.80;99.90
37356;DHT22;48747;50.250;18.848;2022-07-06T01:13:19;16.70;99.90
37356;DHT22;48747;50.250;18.848;2022-07-06T01:15:25;16.80;99.90
37356;DHT22;48747;50.250;18.848;2022-07-06T01:17:28;16.80;99.90
37356;DHT22;48747;50.250;18.848;2022-07-06T01:19:33;16.70;99.90
37356;DHT22;48747;50.250;18.848;2022-07-06T01:23:49;16.60;99.90
37356;DHT22;48747;50.250;18.848;2022-07-06T01:25:54;16.50;99.90
37356;DHT22;48747;50.250;18.848;2022-07-06T01:28:12;16.50;99.90
37356;DHT22;48747;50.250;18.848;2022-07-06T01:30:19;16.40;99.90
37356;DHT22;48747;50.250;18.848;2022-07-06T01:32:21;16.40;99.90
37356;DHT22;48747;50.250;18.848;2022-07-06T01:34:30;16.40;99.90
37356;DHT22;48747;50.250;18.848;2022-07-06T01:36:33;16.30;99.90
37356;DHT22;48747;50.250;18.848;2022-07-06T01:38:54;16.30;99.90
37356;DHT22;48747;50.250;18.848;2022-07-06T01:41:04;16.30;99.90
37356;DHT22;48747;50.250;18.848;2022-07-06T01:43:11;16.30;99.90
37356;DHT22;48747;50.250;18.848;2022-07-06T01:45:13;16.30;99.90
37356;DHT22;48747;50.250;18.848;2022-07-06T01:47:24;16.30;99.90
37356;DHT22;48747;50.250;18.848;2022-07-06T01:49:29;16.20;99.90
37356;DHT22;48747;50.250;18.848;2022-07-06T01:51:32;16.20;99.90
37356;DHT22;48747;50.250;18.848;2022-07-06T01:53:38;16.20;99.90
37356;DHT22;48747;50.250;18.848;2022-07-06T01:55:46;16.10;99.90
37356;DHT22;48747;50.250;18.848;2022-07-06T01:57:57;16.10;99.90
37356;DHT22;48747;50.250;18.848;2022-07-06T01:59:55;16.10;99.90
37356;DHT22;48747;50.250;18.848;2022-07-06T02:02:00;16.10;99.90
37356;DHT22;48747;50.250;18.848;2022-07-06T02:04:16;16.10;99.90
37356;DHT22;48747;50.250;18.848;2022-07-06T02:06:27;16.00;99.90
37356;DHT22;48747;50.250;18.848;2022-07-06T02:08:33;16.00;99.90
37356;DHT22;48747;50.250;18.848;2022-07-06T02:10:37;16.00;99.90
37356;DHT22;48747;50.250;18.848;2022-07-06T02:12:41;16.00;99.90
37356;DHT22;48747;50.250;18.848;2022-07-06T02:14:45;15.90;99.90
37356;DHT22;48747;50.250;18.848;2022-07-06T02:16:52;15.90;99.90
37356;DHT22;48747;50.250;18.848;2022-07-06T02:18:57;15.90;99.90
37356;DHT22;48747;50.250;18.848;2022-07-06T02:21:06;15.90;99.90
37356;DHT22;48747;50.250;18.848;2022-07-06T02:23:12;15.90;99.90
37356;DHT22;48747;50.250;18.848;2022-07-06T02:25:11;16.00;99.90
37356;DHT22;48747;50.250;18.848;2022-07-06T02:27:16;16.00;99.90
37356;DHT22;48747;50.250;18.848;2022-07-06T02:29:24;15.90;99.90
37356;DHT22;48747;50.250;18.848;2022-07-06T02:31:41;15.90;99.90
37356;DHT22;48747;50.250;18.848;2022-07-06T02:33:33;15.90;99.90
37356;DHT22;48747;50.250;18.848;2022-07-06T02:35:38;16.00;99.90
37356;DHT22;48747;50.250;18.848;2022-07-06T02:37:49;16.00;99.90
37356;DHT22;48747;50.250;18.848;2022-07-06T02:39:50;16.00;99.90
37356;DHT22;48747;50.250;18.848;2022-07-06T02:41:59;16.00;99.90
37356;DHT22;48747;50.250;18.848;2022-07-06T02:44:04;15.90;99.90
37356;DHT22;48747;50.250;18.848;2022-07-06T02:46:11;15.90;99.90
37356;DHT22;48747;50.250;18.848;2022-07-06T02:48:16;15.80;99.90
37356;DHT22;48747;50.250;18.848;2022-07-06T02:50:20;15.80;99.90
37356;DHT22;48747;50.250;18.848;2022-07-06T02:52:27;15.80;99.90
37356;DHT22;48747;50.250;18.848;2022-07-06T02:54:37;15.70;99.90
37356;DHT22;48747;50.250;18.848;2022-07-06T02:56:44;15.70;99.90
37356;DHT22;48747;50.250;18.848;2022-07-06T02:58:50;15.70;99.90
37356;DHT22;48747;50.250;18.848;2022-07-06T03:00:54;15.70;99.90
37356;DHT22;48747;50.250;18.848;2022-07-06T03:02:59;15.60;99.90
37356;DHT22;48747;50.250;18.848;2022-07-06T03:05:05;15.60;99.90
37356;DHT22;48747;50.250;18.848;2022-07-06T03:07:10;15.60;99.90
37356;DHT22;48747;50.250;18.848;2022-07-06T03:09:15;15.60;99.90
37356;DHT22;48747;50.250;18.848;2022-07-06T03:11:20;15.60;99.90
37356;DHT22;48747;50.250;18.848;2022-07-06T03:13:29;15.60;99.90
37356;DHT22;48747;50.250;18.848;2022-07-06T03:15:34;15.60;99.90
37356;DHT22;48747;50.250;18.848;2022-07-06T03:17:40;15.60;99.90
37356;DHT22;48747;50.250;18.848;2022-07-06T03:19:49;15.60;99.90
37356;DHT22;48747;50.250;18.848;2022-07-06T03:21:54;15.70;99.90
37356;DHT22;48747;50.250;18.848;2022-07-06T03:24:00;15.60;99.90
37356;DHT22;48747;50.250;18.848;2022-07-06T03:26:07;15.70;99.90
37356;DHT22;48747;50.250;18.848;2022-07-06T03:28:10;15.80;99.90
37356;DHT22;48747;50.250;18.848;2022-07-06T03:30:18;15.90;99.90
37356;DHT22;48747;50.250;18.848;2022-07-06T03:32:28;16.00;99.90
37356;DHT22;48747;50.250;18.848;2022-07-06T03:34:31;16.20;99.90
37356;DHT22;48747;50.250;18.848;2022-07-06T03:36:35;16.30;99.90
37356;DHT22;48747;50.250;18.848;2022-07-06T03:38:38;16.40;99.90
37356;DHT22;48747;50.250;18.848;2022-07-06T03:40:51;16.50;99.90
37356;DHT22;48747;50.250;18.848;2022-07-06T03:42:47;16.50;99.90
37356;DHT22;48747;50.250;18.848;2022-07-06T03:44:52;16.60;99.90
37356;DHT22;48747;50.250;18.848;2022-07-06T03:47:01;16.60;99.90
37356;DHT22;48747;50.250;18.848;2022-07-06T03:51:08;16.60;99.90
37356;DHT22;48747;50.250;18.848;2022-07-06T03:53:17;16.60;99.90
37356;DHT22;48747;50.250;18.848;2022-07-06T03:55:33;16.50;99.90
37356;DHT22;48747;50.250;18.848;2022-07-06T03:57:29;16.40;99.90
37356;DHT22;48747;50.250;18.848;2022-07-06T03:59:37;16.40;99.90
37356;DHT22;48747;50.250;18.848;2022-07-06T04:01:48;16.40;99.90
37356;DHT22;48747;50.250;18.848;2022-07-06T04:03:49;16.40;99.90
37356;DHT22;48747;50.250;18.848;2022-07-06T04:05:59;16.30;99.90
37356;DHT22;48747;50.250;18.848;2022-07-06T04:08:00;16.30;99.90
37356;DHT22;48747;50.250;18.848;2022-07-06T04:10:09;16.30;99.90
37356;DHT22;48747;50.250;18.848;2022-07-06T04:12:17;16.30;99.90
37356;DHT22;48747;50.250;18.848;2022-07-06T04:14:21;16.40;99.90
37356;DHT22;48747;50.250;18.848;2022-07-06T04:16:26;16.40;99.90
37356;DHT22;48747;50.250;18.848;2022-07-06T04:20:39;16.50;99.90
37356;DHT22;48747;50.250;18.848;2022-07-06T04:22:50;16.60;99.90
37356;DHT22;48747;50.250;18.848;2022-07-06T04:24:51;16.60;99.90
37356;DHT22;48747;50.250;18.848;2022-07-06T04:27:01;16.80;99.90
37356;DHT22;48747;50.250;18.848;2022-07-06T04:29:05;16.80;99.90
37356;DHT22;48747;50.250;18.848;2022-07-06T04:31:14;16.80;99.90
37356;DHT22;48747;50.250;18.848;2022-07-06T04:33:11;16.80;99.90
37356;DHT22;48747;50.250;18.848;2022-07-06T04:35:15;17.00;99.90
37356;DHT22;48747;50.250;18.848;2022-07-06T04:37:23;17.00;99.90
37356;DHT22;48747;50.250;18.848;2022-07-06T04:39:22;17.10;99.90
37356;DHT22;48747;50.250;18.848;2022-07-06T04:41:32;17.10;99.90
37356;DHT22;48747;50.250;18.848;2022-07-06T04:43:35;17.10;99.90
37356;DHT22;48747;50.250;18.848;2022-07-06T04:45:41;17.00;99.90
37356;DHT22;48747;50.250;18.848;2022-07-06T04:47:47;17.00;99.90
37356;DHT22;48747;50.250;18.848;2022-07-06T04:49:52;17.00;99.90
37356;DHT22;48747;50.250;18.848;2022-07-06T04:51:57;16.90;99.90
37356;DHT22;48747;50.250;18.848;2022-07-06T04:54:02;16.90;99.90
37356;DHT22;48747;50.250;18.848;2022-07-06T04:56:08;16.90;99.90
37356;DHT22;48747;50.250;18.848;2022-07-06T04:58:13;17.00;99.90
37356;DHT22;48747;50.250;18.848;2022-07-06T05:00:19;17.00;99.90
37356;DHT22;48747;50.250;18.848;2022-07-06T05:02:22;17.00;99.90
37356;DHT22;48747;50.250;18.848;2022-07-06T05:04:25;17.10;99.90
37356;DHT22;48747;50.250;18.848;2022-07-06T05:06:30;17.00;99.90
37356;DHT22;48747;50.250;18.848;2022-07-06T05:08:35;17.10;99.90
37356;DHT22;48747;50.250;18.848;2022-07-06T05:10:54;17.40;99.90
37356;DHT22;48747;50.250;18.848;2022-07-06T05:12:46;17.60;99.90
37356;DHT22;48747;50.250;18.848;2022-07-06T05:14:51;17.70;99.90
37356;DHT22;48747;50.250;18.848;2022-07-06T05:16:56;17.80;99.90
37356;DHT22;48747;50.250;18.848;2022-07-06T05:19:00;17.90;99.90
37356;DHT22;48747;50.250;18.848;2022-07-06T05:21:03;17.90;99.90
37356;DHT22;48747;50.250;18.848;2022-07-06T05:23:11;17.90;99.90
37356;DHT22;48747;50.250;18.848;2022-07-06T05:25:18;18.00;99.90
37356;DHT22;48747;50.250;18.848;2022-07-06T05:27:23;18.00;99.90
37356;DHT22;48747;50.250;18.848;2022-07-06T05:29:27;18.00;99.90
37356;DHT22;48747;50.250;18.848;2022-07-06T05:31:30;18.00;99.90
37356;DHT22;48747;50.250;18.848;2022-07-06T05:33:33;18.00;99.90
37356;DHT22;48747;50.250;18.848;2022-07-06T05:35:36;18.10;99.90
37356;DHT22;48747;50.250;18.848;2022-07-06T05:37:41;18.20;99.90
37356;DHT22;48747;50.250;18.848;2022-07-06T05:39:47;18.40;99.90
37356;DHT22;48747;50.250;18.848;2022-07-06T05:41:56;18.50;99.90
37356;DHT22;48747;50.250;18.848;2022-07-06T05:44:04;18.70;99.90
37356;DHT22;48747;50.250;18.848;2022-07-06T05:46:07;18.70;99.90
37356;DHT22;48747;50.250;18.848;2022-07-06T05:48:16;18.80;99.90
37356;DHT22;48747;50.250;18.848;2022-07-06T05:50:38;18.60;99.90
37356;DHT22;48747;50.250;18.848;2022-07-06T05:52:40;18.50;99.90
37356;DHT22;48747;50.250;18.848;2022-07-06T05:54:44;18.50;99.90
37356;DHT22;48747;50.250;18.848;2022-07-06T05:56:49;18.40;99.90
37356;DHT22;48747;50.250;18.848;2022-07-06T05:58:58;18.30;99.90
37356;DHT22;48747;50.250;18.848;2022-07-06T06:01:03;18.30;99.90
37356;DHT22;48747;50.250;18.848;2022-07-06T06:03:07;18.40;99.90
37356;DHT22;48747;50.250;18.848;2022-07-06T06:05:28;18.40;99.90
37356;DHT22;48747;50.250;18.848;2022-07-06T06:07:26;18.40;99.90
37356;DHT22;48747;50.250;18.848;2022-07-06T06:09:31;18.40;99.90
37356;DHT22;48747;50.250;18.848;2022-07-06T06:11:37;18.40;99.90
37356;DHT22;48747;50.250;18.848;2022-07-06T06:13:40;18.40;99.90
37356;DHT22;48747;50.250;18.848;2022-07-06T06:15:46;18.30;99.90
37356;DHT22;48747;50.250;18.848;2022-07-06T06:17:49;18.30;99.90
37356;DHT22;48747;50.250;18.848;2022-07-06T06:19:54;18.20;99.90
37356;DHT22;48747;50.250;18.848;2022-07-06T06:22:03;18.20;99.90
37356;DHT22;48747;50.250;18.848;2022-07-06T06:24:12;18.20;99.90
37356;DHT22;48747;50.250;18.848;2022-07-06T06:26:19;18.20;99.90
37356;DHT22;48747;50.250;18.848;2022-07-06T06:28:21;18.10;99.90
37356;DHT22;48747;50.250;18.848;2022-07-06T06:30:29;18.10;99.90
37356;DHT22;48747;50.250;18.848;2022-07-06T06:32:30;18.20;99.90
37356;DHT22;48747;50.250;18.848;2022-07-06T06:34:34;18.30;99.90
37356;DHT22;48747;50.250;18.848;2022-07-06T06:36:37;18.30;99.90
37356;DHT22;48747;50.250;18.848;2022-07-06T06:38:40;18.30;99.90
37356;DHT22;48747;50.250;18.848;2022-07-06T06:40:45;18.20;99.90
37356;DHT22;48747;50.250;18.848;2022-07-06T06:42:50;18.30;99.90
37356;DHT22;48747;50.250;18.848;2022-07-06T06:44:55;18.40;99.90
37356;DHT22;48747;50.250;18.848;2022-07-06T06:46:58;18.40;99.90
37356;DHT22;48747;50.250;18.848;2022-07-06T06:49:03;18.40;99.90
37356;DHT22;48747;50.250;18.848;2022-07-06T06:51:14;18.40;99.90
37356;DHT22;48747;50.250;18.848;2022-07-06T06:53:15;18.20;99.90
37356;DHT22;48747;50.250;18.848;2022-07-06T06:55:20;18.20;99.90
37356;DHT22;48747;50.250;18.848;2022-07-06T06:57:24;18.10;99.90
37356;DHT22;48747;50.250;18.848;2022-07-06T06:59:28;18.10;99.90
37356;DHT22;48747;50.250;18.848;2022-07-06T07:01:32;18.10;99.90
37356;DHT22;48747;50.250;18.848;2022-07-06T07:03:36;18.10;99.90
37356;DHT22;48747;50.250;18.848;2022-07-06T07:05:43;18.10;99.90
37356;DHT22;48747;50.250;18.848;2022-07-06T07:07:46;18.20;99.90
37356;DHT22;48747;50.250;18.848;2022-07-06T07:09:51;18.20;99.90
37356;DHT22;48747;50.250;18.848;2022-07-06T07:11:57;18.10;99.90
37356;DHT22;48747;50.250;18.848;2022-07-06T07:14:07;18.00;99.90
37356;DHT22;48747;50.250;18.848;2022-07-06T07:16:08;18.00;99.90
37356;DHT22;48747;50.250;18.848;2022-07-06T07:18:45;18.00;99.90
37356;DHT22;48747;50.250;18.848;2022-07-06T07:21:04;18.10;99.90
37356;DHT22;48747;50.250;18.848;2022-07-06T07:23:28;18.00;99.90
37356;DHT22;48747;50.250;18.848;2022-07-06T07:25:33;17.90;99.90
37356;DHT22;48747;50.250;18.848;2022-07-06T07:27:54;17.80;99.90
37356;DHT22;48747;50.250;18.848;2022-07-06T07:29:59;17.80;99.90
37356;DHT22;48747;50.250;18.848;2022-07-06T07:35:03;17.70;99.90
37356;DHT22;48747;50.250;18.848;2022-07-06T07:37:13;17.70;99.90
37356;DHT22;48747;50.250;18.848;2022-07-06T07:39:35;17.70;99.90
37356;DHT22;48747;50.250;18.848;2022-07-06T07:41:43;17.80;99.90
37356;DHT22;48747;50.250;18.848;2022-07-06T07:43:50;17.90;99.90
37356;DHT22;48747;50.250;18.848;2022-07-06T07:45:58;18.30;99.90
37356;DHT22;48747;50.250;18.848;2022-07-06T07:48:29;18.50;99.90
37356;DHT22;48747;50.250;18.848;2022-07-06T07:50:45;18.70;99.90
37356;DHT22;48747;50.250;18.848;2022-07-06T08:01:19;18.70;99.90
37356;DHT22;48747;50.250;18.848;2022-07-06T08:06:58;18.80;99.90
37356;DHT22;48747;50.250;18.848;2022-07-06T08:08:49;19.10;99.90
37356;DHT22;48747;50.250;18.848;2022-07-06T08:11:25;19.20;99.90
37356;DHT22;48747;50.250;18.848;2022-07-06T08:13:17;19.30;99.90
37356;DHT22;48747;50.250;18.848;2022-07-06T08:15:20;19.30;99.90
37356;DHT22;48747;50.250;18.848;2022-07-06T08:17:24;19.30;99.90
37356;DHT22;48747;50.250;18.848;2022-07-06T08:19:32;19.30;99.90
37356;DHT22;48747;50.250;18.848;2022-07-06T08:22:09;19.50;99.90
37356;DHT22;48747;50.250;18.848;2022-07-06T08:24:12;19.50;99.90
37356;DHT22;48747;50.250;18.848;2022-07-06T08:26:21;19.50;99.90
37356;DHT22;48747;50.250;18.848;2022-07-06T08:28:30;19.30;99.90
37356;DHT22;48747;50.250;18.848;2022-07-06T08:30:34;19.20;99.90
37356;DHT22;48747;50.250;18.848;2022-07-06T08:32:43;19.20;99.90
37356;DHT22;48747;50.250;18.848;2022-07-06T08:34:48;19.00;99.90
37356;DHT22;48747;50.250;18.848;2022-07-06T08:36:54;18.90;99.90
37356;DHT22;48747;50.250;18.848;2022-07-06T08:39:09;18.70;99.90
37356;DHT22;48747;50.250;18.848;2022-07-06T08:41:07;18.70;99.90
37356;DHT22;48747;50.250;18.848;2022-07-06T08:43:12;18.70;99.90
37356;DHT22;48747;50.250;18.848;2022-07-06T08:45:57;18.90;99.90
37356;DHT22;48747;50.250;18.848;2022-07-06T08:48:02;18.90;99.90
37356;DHT22;48747;50.250;18.848;2022-07-06T08:50:20;18.90;99.90
37356;DHT22;48747;50.250;18.848;2022-07-06T08:52:27;19.00;99.90
37356;DHT22;48747;50.250;18.848;2022-07-06T08:54:33;19.10;99.90
37356;DHT22;48747;50.250;18.848;2022-07-06T08:56:39;19.20;99.90
37356;DHT22;48747;50.250;18.848;2022-07-06T08:58:53;19.30;99.90
37356;DHT22;48747;50.250;18.848;2022-07-06T09:00:51;19.40;99.90
37356;DHT22;48747;50.250;18.848;2022-07-06T09:05:05;19.30;99.90
37356;DHT22;48747;50.250;18.848;2022-07-06T09:07:09;19.50;99.90
37356;DHT22;48747;50.250;18.848;2022-07-06T09:09:19;19.70;99.90
37356;DHT22;48747;50.250;18.848;2022-07-06T09:11:28;19.90;99.90
37356;DHT22;48747;50.250;18.848;2022-07-06T09:13:37;20.20;99.90
37356;DHT22;48747;50.250;18.848;2022-07-06T09:15:40;20.40;99.60
37356;DHT22;48747;50.250;18.848;2022-07-06T09:17:43;20.50;96.80
37356;DHT22;48747;50.250;18.848;2022-07-06T09:19:47;20.60;97.10
37356;DHT22;48747;50.250;18.848;2022-07-06T09:21:51;20.70;95.90
37356;DHT22;48747;50.250;18.848;2022-07-06T09:24:01;20.70;96.60
37356;DHT22;48747;50.250;18.848;2022-07-06T09:26:03;20.60;94.50
37356;DHT22;48747;50.250;18.848;2022-07-06T09:28:06;20.50;93.80
37356;DHT22;48747;50.250;18.848;2022-07-06T09:30:29;20.50;94.10
37356;DHT22;48747;50.250;18.848;2022-07-06T09:32:43;20.70;95.00
37356;DHT22;48747;50.250;18.848;2022-07-06T09:35:02;20.90;93.60
37356;DHT22;48747;50.250;18.848;2022-07-06T09:37:09;21.10;94.10
37356;DHT22;48747;50.250;18.848;2022-07-06T09:39:25;21.20;92.90
37356;DHT22;48747;50.250;18.848;2022-07-06T09:41:33;21.20;93.20
37356;DHT22;48747;50.250;18.848;2022-07-06T09:43:40;21.20;92.90
37356;DHT22;48747;50.250;18.848;2022-07-06T09:45:54;21.30;92.20
37356;DHT22;48747;50.250;18.848;2022-07-06T09:48:10;21.40;92.70
37356;DHT22;48747;50.250;18.848;2022-07-06T09:50:19;21.30;91.50
37356;DHT22;48747;50.250;18.848;2022-07-06T09:52:38;21.40;92.50
37356;DHT22;48747;50.250;18.848;2022-07-06T09:54:36;21.50;93.00
37356;DHT22;48747;50.250;18.848;2022-07-06T09:56:46;21.50;91.30
37356;DHT22;48747;50.250;18.848;2022-07-06T09:58:52;21.60;91.40
37356;DHT22;48747;50.250;18.848;2022-07-06T10:01:02;21.60;90.90
37356;DHT22;48747;50.250;18.848;2022-07-06T10:03:09;21.80;91.80
37356;DHT22;48747;50.250;18.848;2022-07-06T10:05:26;22.10;91.00
37356;DHT22;48747;50.250;18.848;2022-07-06T10:07:28;22.30;91.60
37356;DHT22;48747;50.250;18.848;2022-07-06T10:09:32;22.50;91.10
37356;DHT22;48747;50.250;18.848;2022-07-06T10:11:38;22.40;85.60
37356;DHT22;48747;50.250;18.848;2022-07-06T10:13:49;22.30;86.40
37356;DHT22;48747;50.250;18.848;2022-07-06T10:15:50;22.30;86.80
37356;DHT22;48747;50.250;18.848;2022-07-06T10:18:00;22.60;88.80
37356;DHT22;48747;50.250;18.848;2022-07-06T10:20:07;22.90;87.10
37356;DHT22;48747;50.250;18.848;2022-07-06T10:22:14;22.90;85.20
37356;DHT22;48747;50.250;18.848;2022-07-06T10:24:27;22.80;88.10
37356;DHT22;48747;50.250;18.848;2022-07-06T10:26:32;22.90;86.70
37356;DHT22;48747;50.250;18.848;2022-07-06T10:28:36;22.90;83.30
37356;DHT22;48747;50.250;18.848;2022-07-06T10:30:41;22.60;84.30
37356;DHT22;48747;50.250;18.848;2022-07-06T10:32:56;22.60;87.80
37356;DHT22;48747;50.250;18.848;2022-07-06T10:35:12;22.60;87.40
37356;DHT22;48747;50.250;18.848;2022-07-06T10:37:04;22.60;88.30
37356;DHT22;48747;50.250;18.848;2022-07-06T10:39:10;22.60;87.40
37356;DHT22;48747;50.250;18.848;2022-07-06T10:41:35;22.50;87.30
37356;DHT22;48747;50.250;18.848;2022-07-06T10:43:47;22.30;86.40
37356;DHT22;48747;50.250;18.848;2022-07-06T10:45:57;22.10;89.10
37356;DHT22;48747;50.250;18.848;2022-07-06T10:48:16;22.20;90.50
37356;DHT22;48747;50.250;18.848;2022-07-06T10:50:23;22.40;90.70
37356;DHT22;48747;50.250;18.848;2022-07-06T10:52:59;22.40;89.80
37356;DHT22;48747;50.250;18.848;2022-07-06T10:55:07;22.20;90.10
37356;DHT22;48747;50.250;18.848;2022-07-06T10:57:27;22.10;86.60
37356;DHT22;48747;50.250;18.848;2022-07-06T11:10:20;22.60;90.10
37356;DHT22;48747;50.250;18.848;2022-07-06T11:12:20;22.90;88.20
37356;DHT22;48747;50.250;18.848;2022-07-06T11:19:16;22.70;87.50
37356;DHT22;48747;50.250;18.848;2022-07-06T11:21:23;22.80;87.50
37356;DHT22;48747;50.250;18.848;2022-07-06T11:23:37;22.90;88.70
37356;DHT22;48747;50.250;18.848;2022-07-06T11:25:34;23.00;88.80
37356;DHT22;48747;50.250;18.848;2022-07-06T11:27:39;23.00;89.00
37356;DHT22;48747;50.250;18.848;2022-07-06T11:29:42;22.90;86.30
37356;DHT22;48747;50.250;18.848;2022-07-06T11:31:48;22.90;87.60
37356;DHT22;48747;50.250;18.848;2022-07-06T11:33:53;23.00;87.70
37356;DHT22;48747;50.250;18.848;2022-07-06T11:36:20;23.00;86.70
37356;DHT22;48747;50.250;18.848;2022-07-06T11:38:27;22.90;88.50
37356;DHT22;48747;50.250;18.848;2022-07-06T11:40:36;23.10;87.50
37356;DHT22;48747;50.250;18.848;2022-07-06T11:42:36;23.20;84.70
37356;DHT22;48747;50.250;18.848;2022-07-06T11:44:42;23.20;86.60
37356;DHT22;48747;50.250;18.848;2022-07-06T11:46:50;23.40;84.80
37356;DHT22;48747;50.250;18.848;2022-07-06T11:49:08;23.60;85.20
37356;DHT22;48747;50.250;18.848;2022-07-06T11:51:14;23.90;86.00
37356;DHT22;48747;50.250;18.848;2022-07-06T11:55:49;24.00;83.10
37356;DHT22;48747;50.250;18.848;2022-07-06T11:57:53;23.80;83.10
37356;DHT22;48747;50.250;18.848;2022-07-06T11:59:58;23.40;83.00
37356;DHT22;48747;50.250;18.848;2022-07-06T12:04:11;22.50;85.60
37356;DHT22;48747;50.250;18.848;2022-07-06T12:06:19;22.60;87.70
37356;DHT22;48747;50.250;18.848;2022-07-06T12:08:23;22.90;88.00
37356;DHT22;48747;50.250;18.848;2022-07-06T12:10:35;23.20;82.80
37356;DHT22;48747;50.250;18.848;2022-07-06T12:12:39;23.50;84.10
37356;DHT22;48747;50.250;18.848;2022-07-06T12:14:44;23.70;82.80
37356;DHT22;48747;50.250;18.848;2022-07-06T12:16:55;23.90;83.10
37356;DHT22;48747;50.250;18.848;2022-07-06T12:18:55;24.10;84.00
37356;DHT22;48747;50.250;18.848;2022-07-06T12:20:58;24.10;81.40
37356;DHT22;48747;50.250;18.848;2022-07-06T12:23:04;24.10;83.70
37356;DHT22;48747;50.250;18.848;2022-07-06T12:25:08;24.40;84.00
37356;DHT22;48747;50.250;18.848;2022-07-06T12:27:17;24.60;81.60
37356;DHT22;48747;50.250;18.848;2022-07-06T12:29:21;24.60;79.10
37356;DHT22;48747;50.250;18.848;2022-07-06T12:31:37;24.70;79.00
37356;DHT22;48747;50.250;18.848;2022-07-06T12:33:55;24.80;78.70
37356;DHT22;48747;50.250;18.848;2022-07-06T12:35:49;24.50;80.00
37356;DHT22;48747;50.250;18.848;2022-07-06T12:37:57;24.60;78.30
37356;DHT22;48747;50.250;18.848;2022-07-06T12:40:02;24.50;77.70
37356;DHT22;48747;50.250;18.848;2022-07-06T12:42:07;24.30;78.10
37356;DHT22;48747;50.250;18.848;2022-07-06T12:44:11;24.10;80.10
37356;DHT22;48747;50.250;18.848;2022-07-06T12:46:29;23.70;78.10
37356;DHT22;48747;50.250;18.848;2022-07-06T12:48:50;23.50;77.70
37356;DHT22;48747;50.250;18.848;2022-07-06T12:50:40;23.50;78.10
37356;DHT22;48747;50.250;18.848;2022-07-06T12:52:45;23.30;78.80
37356;DHT22;48747;50.250;18.848;2022-07-06T12:54:50;23.10;79.90
37356;DHT22;48747;50.250;18.848;2022-07-06T12:57:20;22.90;80.10
37356;DHT22;48747;50.250;18.848;2022-07-06T12:59:26;22.90;81.40
37356;DHT22;48747;50.250;18.848;2022-07-06T13:01:30;23.30;81.80
37356;DHT22;48747;50.250;18.848;2022-07-06T13:03:40;23.80;78.90
37356;DHT22;48747;50.250;18.848;2022-07-06T13:05:48;23.90;77.80
37356;DHT22;48747;50.250;18.848;2022-07-06T13:07:51;23.70;76.70
37356;DHT22;48747;50.250;18.848;2022-07-06T13:09:55;23.60;79.70
37356;DHT22;48747;50.250;18.848;2022-07-06T13:12:16;23.70;79.50
37356;DHT22;48747;50.250;18.848;2022-07-06T13:14:24;23.90;77.40
37356;DHT22;48747;50.250;18.848;2022-07-06T13:16:27;24.00;76.10
37356;DHT22;48747;50.250;18.848;2022-07-06T13:18:32;23.80;76.20
37356;DHT22;48747;50.250;18.848;2022-07-06T13:20:35;23.30;75.50
37356;DHT22;48747;50.250;18.848;2022-07-06T13:24:56;23.50;76.40
37356;DHT22;48747;50.250;18.848;2022-07-06T13:27:03;23.90;76.70
37356;DHT22;48747;50.250;18.848;2022-07-06T13:29:06;24.00;74.10
37356;DHT22;48747;50.250;18.848;2022-07-06T13:31:09;24.10;75.20
37356;DHT22;48747;50.250;18.848;2022-07-06T13:33:12;24.20;74.90
37356;DHT22;48747;50.250;18.848;2022-07-06T13:35:17;24.40;76.50
37356;DHT22;48747;50.250;18.848;2022-07-06T13:37:23;24.40;74.90
37356;DHT22;48747;50.250;18.848;2022-07-06T13:39:28;24.10;74.20
37356;DHT22;48747;50.250;18.848;2022-07-06T13:42:03;23.60;75.60
37356;DHT22;48747;50.250;18.848;2022-07-06T13:44:25;23.10;77.30
37356;DHT22;48747;50.250;18.848;2022-07-06T13:46:33;22.60;78.20
37356;DHT22;48747;50.250;18.848;2022-07-06T13:48:40;22.30;79.00
37356;DHT22;48747;50.250;18.848;2022-07-06T13:50:41;22.10;80.40
37356;DHT22;48747;50.250;18.848;2022-07-06T13:52:44;22.00;82.00
37356;DHT22;48747;50.250;18.848;2022-07-06T13:54:49;21.90;81.90
37356;DHT22;48747;50.250;18.848;2022-07-06T13:57:03;22.30;81.70
37356;DHT22;48747;50.250;18.848;2022-07-06T14:01:13;23.40;79.60
37356;DHT22;48747;50.250;18.848;2022-07-06T14:03:13;23.70;77.90
37356;DHT22;48747;50.250;18.848;2022-07-06T14:05:16;23.80;76.90
37356;DHT22;48747;50.250;18.848;2022-07-06T14:07:22;23.70;75.80